createdAt,value
2023-01-08T00:01:19.097Z,12.09
2023-01-08T00:03:45.593Z,12.08
2023-01-08T00:06:12.869Z,12.10
2023-01-08T00:08:39.224Z,12.12
2023-01-08T00:11:05.769Z,12.12
2023-01-08T00:13:32.198Z,12.10
2023-01-08T00:16:02.432Z,12.10
2023-01-08T00:18:29.107Z,12.09
2023-01-08T00:20:55.411Z,12.09
2023-01-08T00:23:22.882Z,12.11
2023-01-08T00:25:49.293Z,12.11
2023-01-08T00:28:15.632Z,12.14
2023-01-08T00:30:42.366Z,11.97
2023-01-08T00:33:09.520Z,12.15
2023-01-08T00:35:37.433Z,12.13
2023-01-08T00:38:03.868Z,12.13
2023-01-08T00:40:30.189Z,12.13
2023-01-08T00:42:56.616Z,12.12
2023-01-08T00:45:22.951Z,12.12
2023-01-08T00:47:49.307Z,12.18
2023-01-08T00:50:18.657Z,12.17
2023-01-08T00:52:45.095Z,12.19
2023-01-08T00:55:11.458Z,12.17
2023-01-08T00:57:39.161Z,12.19
2023-01-08T01:00:08.139Z,12.20
2023-01-08T01:02:35.300Z,12.23
2023-01-08T01:05:01.853Z,12.23
2023-01-08T01:07:28.233Z,12.24
2023-01-08T01:09:54.589Z,12.21
2023-01-08T01:12:20.988Z,12.23
2023-01-08T01:14:47.303Z,12.23
2023-01-08T01:17:13.792Z,12.19
2023-01-08T01:19:40.810Z,12.23
2023-01-08T01:22:07.209Z,12.23
2023-01-08T01:24:33.720Z,12.25
2023-01-08T01:27:00.152Z,12.24
2023-01-08T01:29:26.579Z,12.21
2023-01-08T01:31:52.958Z,12.20
2023-01-08T01:34:19.407Z,12.21
2023-01-08T01:36:45.773Z,12.24
2023-01-08T01:39:12.089Z,12.26
2023-01-08T01:41:43.210Z,12.27
2023-01-08T01:44:28.609Z,12.26
2023-01-08T01:46:54.998Z,12.27
2023-01-08T01:49:22.862Z,12.30
2023-01-08T01:51:50.921Z,12.33
2023-01-08T01:54:17.857Z,12.37
2023-01-08T01:56:44.270Z,12.37
2023-01-08T01:59:11.427Z,12.38
2023-01-08T02:01:38.351Z,12.40
2023-01-08T02:04:05.660Z,12.41
2023-01-08T02:06:35.720Z,12.38
2023-01-08T02:09:03.107Z,12.37
2023-01-08T02:11:39.182Z,12.37
2023-01-08T02:14:16.282Z,12.26
2023-01-08T02:16:50.410Z,12.26
2023-01-08T02:19:23.562Z,12.25
2023-01-08T02:21:49.926Z,12.22
2023-01-08T02:24:23.697Z,11.99
2023-01-08T02:26:53.003Z,12.18
2023-01-08T02:29:22.025Z,12.16
2023-01-08T02:31:48.421Z,12.12
2023-01-08T02:34:14.741Z,12.14
2023-01-08T02:36:42.000Z,12.07
2023-01-08T02:39:11.447Z,12.07
2023-01-08T02:41:47.792Z,12.02
2023-01-08T02:44:19.609Z,12.03
2023-01-08T02:46:46.729Z,12.03
2023-01-08T02:49:13.843Z,12.04
2023-01-08T02:51:47.303Z,12.04
2023-01-08T02:54:16.682Z,12.02
2023-01-08T02:56:46.200Z,11.98
2023-01-08T02:59:14.439Z,11.92
2023-01-08T03:01:41.288Z,11.90
2023-01-08T03:04:11.665Z,11.93
2023-01-08T03:06:38.343Z,11.93
2023-01-08T03:09:06.146Z,11.92
2023-01-08T03:11:37.171Z,11.93
2023-01-08T03:14:20.118Z,11.96
2023-01-08T03:16:52.462Z,11.95
2023-01-08T03:19:26.003Z,11.96
2023-01-08T03:21:53.290Z,11.98
2023-01-08T03:24:25.343Z,11.93
2023-01-08T03:26:53.546Z,11.90
2023-01-08T03:29:21.337Z,11.84
2023-01-08T03:31:48.265Z,11.83
2023-01-08T03:34:15.846Z,11.85
2023-01-08T03:36:46.543Z,11.87
2023-01-08T03:39:33.161Z,11.84
2023-01-08T03:42:02.587Z,11.85
2023-01-08T03:44:28.928Z,11.86
2023-01-08T03:46:56.525Z,11.89
2023-01-08T03:49:24.607Z,11.93
2023-01-08T03:51:50.999Z,11.91
2023-01-08T03:54:22.219Z,11.92
2023-01-08T03:56:48.653Z,11.95
2023-01-08T03:59:15.602Z,11.88
2023-01-08T04:01:42.328Z,11.94
2023-01-08T04:04:10.065Z,11.98
2023-01-08T04:06:36.409Z,11.95
2023-01-08T04:09:03.011Z,11.98
2023-01-08T04:11:29.397Z,12.01
2023-01-08T04:13:55.859Z,12.00
2023-01-08T04:16:22.451Z,11.99
2023-01-08T04:18:48.895Z,11.95
2023-01-08T04:21:15.278Z,11.97
2023-01-08T04:23:41.606Z,11.97
2023-01-08T04:26:08.353Z,11.96
2023-01-08T04:28:35.036Z,11.95
2023-01-08T04:31:05.333Z,11.94
2023-01-08T04:33:31.849Z,11.97
2023-01-08T04:35:58.167Z,11.96
2023-01-08T04:38:24.609Z,11.96
2023-01-08T04:40:55.755Z,11.98
2023-01-08T04:43:22.148Z,11.95
2023-01-08T04:45:48.479Z,11.94
2023-01-08T04:48:14.856Z,11.96
2023-01-08T04:50:41.246Z,11.95
2023-01-08T04:53:07.707Z,11.92
2023-01-08T04:55:34.166Z,11.94
2023-01-08T04:58:00.709Z,11.98
2023-01-08T05:00:27.072Z,11.97
2023-01-08T05:02:53.566Z,11.99
2023-01-08T05:05:20.019Z,11.96
2023-01-08T05:07:46.381Z,11.97
2023-01-08T05:10:12.752Z,11.98
2023-01-08T05:12:39.173Z,11.98
2023-01-08T05:15:05.726Z,11.96
2023-01-08T05:17:32.154Z,11.93
2023-01-08T05:19:58.463Z,11.95
2023-01-08T05:22:24.755Z,11.91
2023-01-08T05:24:51.125Z,11.90
2023-01-08T05:27:17.667Z,11.90
2023-01-08T05:29:44.069Z,11.88
2023-01-08T05:32:15.332Z,11.87
2023-01-08T05:34:41.835Z,11.88
2023-01-08T05:37:08.207Z,11.86
2023-01-08T05:39:34.614Z,11.84
2023-01-08T05:42:01.357Z,11.85
2023-01-08T05:44:27.741Z,11.81
2023-01-08T05:46:54.528Z,11.77
2023-01-08T05:49:22.020Z,11.78
2023-01-08T05:51:48.350Z,11.79
2023-01-08T05:54:14.694Z,11.80
2023-01-08T05:56:43.802Z,11.81
2023-01-08T05:59:13.112Z,11.80
2023-01-08T06:01:40.032Z,11.81
2023-01-08T06:04:06.450Z,11.77
2023-01-08T06:06:32.860Z,11.76
2023-01-08T06:08:59.250Z,11.79
2023-01-08T06:11:25.626Z,11.75
2023-01-08T06:13:52.064Z,11.76
2023-01-08T06:16:18.571Z,11.74
2023-01-08T06:18:45.021Z,11.73
2023-01-08T06:21:13.187Z,11.76
2023-01-08T06:23:39.968Z,11.74
2023-01-08T06:26:06.771Z,11.75
2023-01-08T06:28:33.117Z,11.69
2023-01-08T06:31:00.493Z,11.67
2023-01-08T06:33:27.120Z,11.66
2023-01-08T06:35:53.555Z,11.69
2023-01-08T06:38:19.962Z,11.68
2023-01-08T06:40:46.864Z,11.65
2023-01-08T06:43:13.258Z,11.62
2023-01-08T06:45:39.731Z,11.61
2023-01-08T06:48:06.966Z,11.64
2023-01-08T06:50:34.253Z,11.67
2023-01-08T06:53:00.982Z,11.68
2023-01-08T06:55:27.689Z,11.66
2023-01-08T06:57:54.862Z,11.68
2023-01-08T07:00:23.577Z,11.65
2023-01-08T07:02:50.584Z,11.66
2023-01-08T07:05:17.332Z,11.63
2023-01-08T07:07:43.792Z,11.63
2023-01-08T07:10:10.309Z,11.65
2023-01-08T07:12:36.751Z,11.62
2023-01-08T07:15:03.557Z,11.62
2023-01-08T07:17:31.774Z,11.61
2023-01-08T07:19:58.109Z,11.56
2023-01-08T07:22:25.939Z,11.55
2023-01-08T07:24:52.754Z,11.47
2023-01-08T07:27:19.293Z,11.49
2023-01-08T07:29:45.670Z,11.44
2023-01-08T07:32:12.048Z,11.39
2023-01-08T07:34:38.398Z,11.29
2023-01-08T07:37:04.777Z,11.26
2023-01-08T07:39:31.793Z,11.27
2023-01-08T07:41:58.164Z,11.26
2023-01-08T07:44:24.685Z,11.24
2023-01-08T07:46:51.080Z,11.26
2023-01-08T07:49:17.450Z,11.27
2023-01-08T07:51:43.763Z,11.30
2023-01-08T07:54:10.225Z,11.31
2023-01-08T07:56:36.630Z,11.28
2023-01-08T07:59:03.018Z,11.25
2023-01-08T08:01:29.490Z,11.32
2023-01-08T08:03:55.901Z,11.26
2023-01-08T08:06:22.293Z,11.27
2023-01-08T08:08:48.761Z,11.31
2023-01-08T08:11:15.139Z,11.28
2023-01-08T08:13:44.716Z,11.24
2023-01-08T08:16:11.528Z,11.24
2023-01-08T08:18:38.037Z,11.29
2023-01-08T08:21:04.655Z,11.32
2023-01-08T08:23:32.334Z,11.29
2023-01-08T08:25:58.781Z,11.29
2023-01-08T08:28:25.187Z,11.26
2023-01-08T08:30:51.915Z,11.24
2023-01-08T08:33:18.347Z,11.08
2023-01-08T08:35:48.975Z,11.26
2023-01-08T08:38:15.425Z,11.34
2023-01-08T08:40:42.466Z,11.32
2023-01-08T08:43:09.849Z,11.30
2023-01-08T08:45:36.379Z,11.32
2023-01-08T08:48:04.909Z,11.33
2023-01-08T08:50:31.253Z,11.28
2023-01-08T08:53:01.403Z,11.36
2023-01-08T08:55:28.161Z,11.33
2023-01-08T08:57:54.527Z,11.37
2023-01-08T09:00:20.921Z,11.40
2023-01-08T09:02:49.526Z,11.46
2023-01-08T09:05:16.041Z,11.41
2023-01-08T09:07:42.409Z,11.46
2023-01-08T09:10:08.872Z,11.52
2023-01-08T09:12:35.289Z,11.53
2023-01-08T09:15:01.579Z,11.55
2023-01-08T09:17:28.003Z,11.57
2023-01-08T09:19:54.405Z,11.54
2023-01-08T09:22:20.833Z,11.49
2023-01-08T09:24:47.364Z,11.41
2023-01-08T09:27:14.057Z,11.34
2023-01-08T09:29:40.394Z,11.39
2023-01-08T09:32:07.242Z,11.37
2023-01-08T09:34:36.005Z,11.37
2023-01-08T09:37:02.592Z,11.28
2023-01-08T09:39:28.955Z,11.24
2023-01-08T09:41:56.357Z,11.20
2023-01-08T09:44:26.435Z,11.20
2023-01-08T09:46:54.858Z,11.22
2023-01-08T09:49:26.486Z,11.29
2023-01-08T09:51:52.914Z,11.37
2023-01-08T09:54:19.993Z,11.42
2023-01-08T09:56:46.495Z,11.46
2023-01-08T09:59:16.609Z,11.59
2023-01-08T10:01:45.251Z,11.73
2023-01-08T10:04:14.766Z,11.80
2023-01-08T10:06:44.564Z,11.89
2023-01-08T10:09:14.335Z,11.91
2023-01-08T10:11:43.009Z,11.90
2023-01-08T10:14:48.041Z,11.91
2023-01-08T10:17:25.683Z,11.94
2023-01-08T10:19:52.176Z,12.08
2023-01-08T10:22:19.831Z,12.16
2023-01-08T10:24:46.281Z,12.23
2023-01-08T10:27:14.891Z,12.26
2023-01-08T10:29:41.358Z,12.23
2023-01-08T10:32:09.935Z,12.22
2023-01-08T10:34:44.976Z,12.12
2023-01-08T10:37:16.492Z,12.05
2023-01-08T10:39:45.903Z,12.07
2023-01-08T10:42:12.987Z,12.13
2023-01-08T10:44:39.439Z,12.21
2023-01-08T10:47:06.224Z,12.24
2023-01-08T10:49:39.131Z,12.23
2023-01-08T10:52:05.770Z,12.25
2023-01-08T10:54:33.913Z,12.27
2023-01-08T10:57:02.466Z,12.33
2023-01-08T10:59:29.448Z,12.37
2023-01-08T11:01:57.607Z,12.33
2023-01-08T11:04:29.095Z,12.34
2023-01-08T11:06:59.859Z,12.45
2023-01-08T11:09:31.079Z,12.50
2023-01-08T11:11:57.938Z,12.48
2023-01-08T11:14:26.785Z,12.54
2023-01-08T11:16:53.886Z,12.56
2023-01-08T11:19:23.493Z,12.58
2023-01-08T11:22:02.129Z,12.55
2023-01-08T11:24:28.719Z,12.56
2023-01-08T11:27:01.489Z,12.57
2023-01-08T11:29:38.677Z,12.66
2023-01-08T11:32:23.960Z,12.69
2023-01-08T11:34:54.252Z,12.73
2023-01-08T11:37:22.182Z,12.81
2023-01-08T11:39:49.142Z,12.80
2023-01-08T11:42:34.400Z,12.79
2023-01-08T11:45:15.152Z,12.78
2023-01-08T11:47:51.532Z,12.77
2023-01-08T11:50:21.862Z,12.77
2023-01-08T11:52:55.686Z,12.75
2023-01-08T11:55:41.765Z,12.72
2023-01-08T11:58:30.536Z,12.66
2023-01-08T12:01:02.123Z,12.63
2023-01-08T12:03:31.312Z,12.59
2023-01-08T12:06:05.015Z,12.60
2023-01-08T12:08:40.489Z,12.57
2023-01-08T12:11:33.099Z,12.38
2023-01-08T12:14:18.234Z,12.36
2023-01-08T12:17:03.640Z,12.35
2023-01-08T12:19:33.062Z,12.27
2023-01-08T12:22:18.211Z,12.26
2023-01-08T12:24:44.677Z,12.31
2023-01-08T12:27:11.066Z,12.26
2023-01-08T12:29:54.471Z,12.24
2023-01-08T12:32:23.191Z,12.23
2023-01-08T12:34:57.826Z,12.21
2023-01-08T12:37:27.291Z,12.18
2023-01-08T12:39:56.721Z,12.22
2023-01-08T12:42:28.070Z,12.31
2023-01-08T12:44:56.786Z,12.43
2023-01-08T12:47:25.601Z,12.45
2023-01-08T12:50:12.224Z,12.49
2023-01-08T12:52:57.453Z,12.50
2023-01-08T12:55:27.314Z,12.45
2023-01-08T12:58:12.245Z,12.43
2023-01-08T13:00:46.176Z,12.41
2023-01-08T13:03:15.236Z,12.38
2023-01-08T13:05:43.479Z,12.29
2023-01-08T13:08:27.405Z,12.17
2023-01-08T13:10:54.787Z,12.10
2023-01-08T13:13:24.125Z,12.04
2023-01-08T13:15:50.588Z,12.08
2023-01-08T13:18:18.713Z,12.10
2023-01-08T13:20:55.860Z,12.06
2023-01-08T13:23:25.621Z,12.04
2023-01-08T13:25:53.303Z,11.98
2023-01-08T13:28:28.163Z,11.96
2023-01-08T13:30:55.800Z,11.96
2023-01-08T13:33:41.665Z,11.87
2023-01-08T13:36:23.571Z,12.01
2023-01-08T13:39:04.972Z,12.01
2023-01-08T13:41:32.897Z,12.01
2023-01-08T13:44:07.005Z,12.09
2023-01-08T13:46:36.329Z,12.13
2023-01-08T13:49:07.538Z,12.21
2023-01-08T13:51:40.866Z,12.26
2023-01-08T13:54:07.719Z,12.30
2023-01-08T13:56:34.088Z,12.27
2023-01-08T13:59:00.528Z,12.24
2023-01-08T14:01:27.053Z,12.22
2023-01-08T14:03:53.494Z,12.16
2023-01-08T14:06:22.031Z,12.18
2023-01-08T14:09:02.092Z,12.13
2023-01-08T14:11:41.763Z,12.09
2023-01-08T14:14:12.579Z,12.07
2023-01-08T14:16:39.935Z,12.04
2023-01-08T14:19:06.396Z,11.97
2023-01-08T14:21:32.972Z,11.95
2023-01-08T14:23:59.475Z,11.91
2023-01-08T14:26:31.948Z,11.87
2023-01-08T14:28:58.386Z,11.81
2023-01-08T14:31:26.518Z,11.88
2023-01-08T14:33:54.269Z,11.85
2023-01-08T14:36:21.140Z,11.93
2023-01-08T14:38:50.932Z,11.91
2023-01-08T14:41:21.638Z,11.95
2023-01-08T14:43:49.789Z,12.01
2023-01-08T14:46:24.657Z,11.99
2023-01-08T14:48:52.265Z,11.99
2023-01-08T14:51:23.185Z,11.98
2023-01-08T14:54:01.472Z,11.97
2023-01-08T14:56:30.213Z,11.92
2023-01-08T14:58:59.522Z,11.85
2023-01-08T15:01:30.937Z,11.86
2023-01-08T15:04:17.107Z,11.91
2023-01-08T15:06:43.600Z,11.97
2023-01-08T15:09:20.712Z,11.96
2023-01-08T15:11:49.879Z,11.96
2023-01-08T15:14:22.836Z,11.94
2023-01-08T15:16:49.390Z,11.90
2023-01-08T15:19:22.415Z,11.87
2023-01-08T15:21:49.821Z,11.80
2023-01-08T15:24:23.509Z,11.74
2023-01-08T15:26:50.577Z,11.71
2023-01-08T15:29:22.946Z,11.73
2023-01-08T15:31:49.569Z,11.74
2023-01-08T15:34:18.079Z,11.78
2023-01-08T15:36:45.410Z,11.75
2023-01-08T15:39:11.784Z,11.68
2023-01-08T15:41:57.457Z,11.62
2023-01-08T15:44:24.514Z,11.55
2023-01-08T15:46:51.946Z,11.53
2023-01-08T15:49:18.319Z,11.48
2023-01-08T15:51:46.509Z,11.37
2023-01-08T15:54:13.262Z,11.34
2023-01-08T15:56:39.762Z,11.25
2023-01-08T15:59:06.259Z,11.20
2023-01-08T16:01:33.296Z,11.16
2023-01-08T16:04:00.103Z,11.10
2023-01-08T16:06:26.453Z,11.08
2023-01-08T16:08:52.767Z,11.05
2023-01-08T16:11:19.556Z,11.02
2023-01-08T16:13:46.296Z,11.03
2023-01-08T16:16:14.040Z,11.01
2023-01-08T16:18:40.828Z,10.98
2023-01-08T16:21:08.058Z,10.96
2023-01-08T16:23:35.633Z,10.91
2023-01-08T16:26:05.757Z,10.85
2023-01-08T16:28:32.162Z,10.85
2023-01-08T16:30:58.549Z,10.85
2023-01-08T16:33:25.034Z,10.81
2023-01-08T16:36:23.608Z,10.73
2023-01-08T16:38:50.004Z,10.79
2023-01-08T16:41:16.609Z,10.75
2023-01-08T16:44:01.413Z,10.91
2023-01-08T16:46:30.484Z,10.99
2023-01-08T16:48:56.913Z,11.09
2023-01-08T16:51:25.269Z,11.10
2023-01-08T16:53:51.681Z,11.11
2023-01-08T16:56:18.142Z,11.08
2023-01-08T16:58:44.556Z,11.02
2023-01-08T17:01:11.217Z,10.93
2023-01-08T17:03:37.745Z,10.88
2023-01-08T17:06:08.107Z,10.85
2023-01-08T17:08:39.685Z,10.81
2023-01-08T17:11:06.913Z,10.74
2023-01-08T17:13:33.326Z,10.70
2023-01-08T17:16:02.270Z,10.65
2023-01-08T17:18:28.691Z,10.44
2023-01-08T17:20:55.164Z,10.63
2023-01-08T17:23:26.961Z,10.65
2023-01-08T17:25:57.197Z,10.67
2023-01-08T17:28:28.439Z,10.70
2023-01-08T17:31:01.425Z,10.64
2023-01-08T17:33:27.803Z,10.58
2023-01-08T17:35:54.156Z,10.58
2023-01-08T17:38:20.514Z,10.52
2023-01-08T17:40:49.913Z,10.56
2023-01-08T17:43:16.270Z,10.62
2023-01-08T17:45:42.632Z,10.67
2023-01-08T17:48:09.054Z,10.74
2023-01-08T17:50:35.450Z,10.73
2023-01-08T17:53:01.891Z,10.70
2023-01-08T17:55:28.340Z,10.69
2023-01-08T17:57:54.718Z,10.66
2023-01-08T18:00:21.281Z,10.65
2023-01-08T18:02:47.755Z,10.65
2023-01-08T18:05:14.224Z,10.70
2023-01-08T18:07:40.600Z,10.69
2023-01-08T18:10:07.437Z,10.64
2023-01-08T18:12:33.827Z,10.65
2023-01-08T18:15:00.355Z,10.63
2023-01-08T18:17:26.942Z,10.64
2023-01-08T18:19:53.280Z,10.64
2023-01-08T18:22:19.598Z,10.59
2023-01-08T18:24:46.006Z,10.62
2023-01-08T18:27:12.370Z,10.60
2023-01-08T18:29:38.765Z,10.62
2023-01-08T18:32:05.331Z,10.64
2023-01-08T18:34:31.776Z,10.61
2023-01-08T18:36:58.200Z,10.61
2023-01-08T18:39:26.598Z,10.62
2023-01-08T18:42:11.685Z,10.60
2023-01-08T18:44:38.088Z,10.59
2023-01-08T18:47:04.549Z,10.59
2023-01-08T18:49:30.976Z,10.56
2023-01-08T18:51:57.375Z,10.61
2023-01-08T18:54:23.956Z,10.59
2023-01-08T18:56:51.159Z,10.55
2023-01-08T18:59:17.715Z,10.58
2023-01-08T19:01:44.194Z,10.56
2023-01-08T19:04:15.161Z,10.51
2023-01-08T19:06:41.567Z,10.56
2023-01-08T19:09:07.927Z,10.58
2023-01-08T19:11:34.348Z,10.61
2023-01-08T19:14:00.843Z,10.63
2023-01-08T19:16:27.353Z,10.67
2023-01-08T19:18:53.959Z,10.60
2023-01-08T19:21:20.521Z,10.58
2023-01-08T19:23:47.082Z,10.56
2023-01-08T19:26:14.560Z,10.51
2023-01-08T19:28:41.407Z,10.58
2023-01-08T19:31:12.021Z,10.59
2023-01-08T19:33:38.453Z,10.62
2023-01-08T19:36:12.390Z,10.59
2023-01-08T19:38:39.770Z,10.54
2023-01-08T19:41:26.771Z,10.50
2023-01-08T19:43:56.614Z,10.44
2023-01-08T19:46:23.326Z,10.37
2023-01-08T19:48:49.675Z,10.31
2023-01-08T19:51:16.045Z,10.33
2023-01-08T19:53:42.547Z,10.30
2023-01-08T19:56:10.420Z,10.26
2023-01-08T19:58:36.874Z,10.25
2023-01-08T20:01:14.259Z,10.23
2023-01-08T20:03:41.147Z,10.22
2023-01-08T20:06:12.579Z,10.25
2023-01-08T20:08:38.981Z,10.25
2023-01-08T20:11:06.474Z,10.24
2023-01-08T20:13:35.919Z,10.26
2023-01-08T20:16:06.590Z,10.27
2023-01-08T20:18:33.930Z,10.25
2023-01-08T20:21:07.788Z,10.25
2023-01-08T20:23:36.389Z,10.24
2023-01-08T20:26:05.680Z,10.26
2023-01-08T20:28:35.678Z,10.28
2023-01-08T20:31:06.053Z,10.30
2023-01-08T20:33:32.456Z,10.29
2023-01-08T20:35:58.924Z,10.28
2023-01-08T20:38:25.260Z,10.29
2023-01-08T20:40:51.629Z,10.28
2023-01-08T20:43:18.026Z,10.30
2023-01-08T20:45:47.181Z,10.32
2023-01-08T20:48:13.794Z,10.33
2023-01-08T20:50:44.627Z,10.36
2023-01-08T20:53:11.050Z,10.33
2023-01-08T20:55:37.550Z,10.39
2023-01-08T20:58:03.951Z,10.42
2023-01-08T21:00:30.324Z,10.47
2023-01-08T21:02:57.250Z,10.50
2023-01-08T21:05:24.737Z,10.52
2023-01-08T21:07:51.095Z,10.58
2023-01-08T21:10:17.415Z,10.61
2023-01-08T21:12:43.888Z,10.66
2023-01-08T21:15:11.652Z,10.68
2023-01-08T21:17:38.209Z,10.69
2023-01-08T21:20:05.515Z,10.67
2023-01-08T21:22:31.902Z,10.66
2023-01-08T21:24:58.297Z,10.68
2023-01-08T21:27:25.167Z,10.69
2023-01-08T21:29:52.329Z,10.71
2023-01-08T21:32:18.774Z,10.74
2023-01-08T21:34:45.820Z,10.73
2023-01-08T21:37:15.151Z,10.77
2023-01-08T21:39:41.814Z,10.77
2023-01-08T21:42:27.691Z,10.76
2023-01-08T21:45:12.612Z,10.78
2023-01-08T21:47:38.968Z,10.78
2023-01-08T21:50:05.948Z,10.77
2023-01-08T21:52:51.065Z,10.74
2023-01-08T21:55:17.449Z,10.78
2023-01-08T21:57:44.503Z,10.81
2023-01-08T22:00:12.035Z,10.86
2023-01-08T22:02:38.513Z,10.91
2023-01-08T22:05:05.383Z,10.95
2023-01-08T22:07:32.054Z,11.00
2023-01-08T22:10:00.411Z,10.99
2023-01-08T22:12:27.541Z,10.98
2023-01-08T22:14:54.806Z,10.96
2023-01-08T22:17:21.563Z,10.93
2023-01-08T22:19:47.905Z,10.94
2023-01-08T22:22:14.265Z,10.94
2023-01-08T22:24:41.257Z,10.96
2023-01-08T22:27:08.628Z,10.93
2023-01-08T22:29:35.304Z,10.88
2023-01-08T22:32:01.773Z,10.87
2023-01-08T22:34:31.783Z,10.89
2023-01-08T22:36:58.190Z,10.92
2023-01-08T22:39:24.675Z,10.90
2023-01-08T22:41:51.464Z,10.87
2023-01-08T22:44:17.959Z,10.84
2023-01-08T22:46:44.316Z,10.81
2023-01-08T22:49:11.640Z,10.87
2023-01-08T22:51:38.483Z,10.84
2023-01-08T22:54:04.923Z,10.85
2023-01-08T22:56:31.277Z,10.85
2023-01-08T22:58:57.773Z,10.79
2023-01-08T23:01:25.225Z,10.74
2023-01-08T23:03:52.738Z,10.75
2023-01-08T23:06:20.086Z,10.71
2023-01-08T23:08:46.582Z,10.65
2023-01-08T23:11:13.824Z,10.54
2023-01-08T23:13:40.686Z,10.55
2023-01-08T23:16:08.829Z,10.53
2023-01-08T23:18:35.935Z,10.51
2023-01-08T23:21:06.257Z,10.49
2023-01-08T23:23:32.742Z,10.36
2023-01-08T23:26:10.472Z,10.27
2023-01-08T23:28:37.245Z,10.31
2023-01-08T23:31:07.802Z,10.29
2023-01-08T23:33:34.178Z,10.21
2023-01-08T23:38:41.060Z,10.17
2023-01-08T23:41:07.430Z,10.08
2023-01-08T23:43:33.850Z,10.03
2023-01-08T23:46:03.856Z,10.04
2023-01-08T23:48:30.412Z,9.98
2023-01-08T23:50:57.173Z,9.93
2023-01-08T23:53:23.506Z,9.88
2023-01-08T23:55:49.845Z,9.85
2023-01-08T23:58:16.589Z,9.88
